sensor_id;sensor_type;location;lat;lon;timestamp;pressure;altitude;pressure_sealevel;temperature;humidity
61674;BME280;47573;43.832;5.974;2023-02-01T00:01:40;95718.91;;;20.44;71.51
61674;BME280;47573;43.832;5.974;2023-02-01T00:08:22;95715.97;;;20.52;71.07
61674;BME280;47573;43.832;5.974;2023-02-01T00:15:03;95726.78;;;20.21;72.39
61674;BME280;47573;43.832;5.974;2023-02-01T00:21:44;95714.88;;;20.16;72.62
61674;BME280;47573;43.832;5.974;2023-02-01T00:28:25;95704.50;;;20.06;72.96
61674;BME280;47573;43.832;5.974;2023-02-01T00:35:08;95686.16;;;20.01;72.78
61674;BME280;47573;43.832;5.974;2023-02-01T00:41:48;95679.31;;;19.92;72.13
61674;BME280;47573;43.832;5.974;2023-02-01T00:48:30;95680.84;;;19.82;72.20
61674;BME280;47573;43.832;5.974;2023-02-01T00:55:11;95676.88;;;19.78;72.12
61674;BME280;47573;43.832;5.974;2023-02-01T01:01:51;95673.97;;;19.73;72.06
61674;BME280;47573;43.832;5.974;2023-02-01T01:08:33;95678.16;;;19.69;71.81
61674;BME280;47573;43.832;5.974;2023-02-01T01:15:14;95674.84;;;19.67;71.73
61674;BME280;47573;43.832;5.974;2023-02-01T01:21:55;95687.16;;;19.63;71.67
61674;BME280;47573;43.832;5.974;2023-02-01T01:28:36;95683.41;;;19.57;71.68
61674;BME280;47573;43.832;5.974;2023-02-01T01:35:17;95685.09;;;19.52;71.60
61674;BME280;47573;43.832;5.974;2023-02-01T01:41:57;95667.81;;;19.46;71.59
61674;BME280;47573;43.832;5.974;2023-02-01T01:48:39;95667.41;;;19.43;71.38
61674;BME280;47573;43.832;5.974;2023-02-01T01:55:21;95659.50;;;19.35;71.39
61674;BME280;47573;43.832;5.974;2023-02-01T02:02:02;95662.00;;;19.30;71.14
61674;BME280;47573;43.832;5.974;2023-02-01T02:08:44;95660.56;;;19.20;70.85
61674;BME280;47573;43.832;5.974;2023-02-01T02:15:25;95661.63;;;19.19;71.13
61674;BME280;47573;43.832;5.974;2023-02-01T02:22:21;95654.53;;;19.18;71.09
61674;BME280;47573;43.832;5.974;2023-02-01T02:29:41;95649.94;;;19.12;71.21
61674;BME280;47573;43.832;5.974;2023-02-01T02:36:39;95650.56;;;19.08;71.09
61674;BME280;47573;43.832;5.974;2023-02-01T02:43:24;95645.16;;;19.08;70.97
61674;BME280;47573;43.832;5.974;2023-02-01T02:50:15;95648.94;;;19.00;71.15
61674;BME280;47573;43.832;5.974;2023-02-01T02:57:02;95646.63;;;18.97;71.15
61674;BME280;47573;43.832;5.974;2023-02-01T03:03:44;95643.53;;;18.94;71.16
61674;BME280;47573;43.832;5.974;2023-02-01T03:10:32;95636.03;;;18.89;71.15
61674;BME280;47573;43.832;5.974;2023-02-01T03:17:21;95649.38;;;18.84;71.27
61674;BME280;47573;43.832;5.974;2023-02-01T03:24:07;95642.06;;;18.85;70.96
61674;BME280;47573;43.832;5.974;2023-02-01T03:30:50;95644.78;;;18.78;71.10
61674;BME280;47573;43.832;5.974;2023-02-01T03:37:32;95657.66;;;18.76;70.97
61674;BME280;47573;43.832;5.974;2023-02-01T03:44:15;95660.19;;;18.71;71.03
61674;BME280;47573;43.832;5.974;2023-02-01T03:51:00;95671.41;;;18.68;70.83
61674;BME280;47573;43.832;5.974;2023-02-01T03:57:48;95666.84;;;18.62;70.99
61674;BME280;47573;43.832;5.974;2023-02-01T04:04:31;95654.75;;;18.58;70.75
61674;BME280;47573;43.832;5.974;2023-02-01T04:11:12;95656.44;;;18.59;70.43
61674;BME280;47573;43.832;5.974;2023-02-01T04:17:54;95654.34;;;18.55;70.53
61674;BME280;47573;43.832;5.974;2023-02-01T04:24:34;95662.03;;;18.51;70.37
61674;BME280;47573;43.832;5.974;2023-02-01T04:31:15;95674.53;;;18.52;70.24
61674;BME280;47573;43.832;5.974;2023-02-01T04:37:57;95671.41;;;18.49;70.07
61674;BME280;47573;43.832;5.974;2023-02-01T04:44:38;95662.84;;;18.45;69.87
61674;BME280;47573;43.832;5.974;2023-02-01T04:51:18;95648.06;;;18.41;69.86
61674;BME280;47573;43.832;5.974;2023-02-01T04:58:00;95651.81;;;18.40;69.85
61674;BME280;47573;43.832;5.974;2023-02-01T05:04:40;95652.63;;;18.34;69.87
61674;BME280;47573;43.832;5.974;2023-02-01T05:11:21;95647.22;;;18.34;69.83
61674;BME280;47573;43.832;5.974;2023-02-01T05:18:03;95637.25;;;18.28;69.65
61674;BME280;47573;43.832;5.974;2023-02-01T05:24:44;95649.31;;;18.25;69.94
61674;BME280;47573;43.832;5.974;2023-02-01T05:31:25;95652.63;;;18.21;69.83
61674;BME280;47573;43.832;5.974;2023-02-01T05:38:07;95662.78;;;18.19;69.89
61674;BME280;47573;43.832;5.974;2023-02-01T05:44:47;95660.50;;;18.16;69.97
61674;BME280;47573;43.832;5.974;2023-02-01T05:51:28;95662.56;;;18.14;69.88
61674;BME280;47573;43.832;5.974;2023-02-01T05:58:10;95665.06;;;18.09;69.85
61674;BME280;47573;43.832;5.974;2023-02-01T06:04:50;95666.50;;;18.05;69.98
61674;BME280;47573;43.832;5.974;2023-02-01T06:11:31;95673.16;;;18.02;69.92
61674;BME280;47573;43.832;5.974;2023-02-01T06:18:13;95667.50;;;17.97;69.95
61674;BME280;47573;43.832;5.974;2023-02-01T06:24:53;95669.41;;;17.97;69.89
61674;BME280;47573;43.832;5.974;2023-02-01T06:31:34;95670.59;;;17.88;70.17
61674;BME280;47573;43.832;5.974;2023-02-01T06:38:16;95666.22;;;17.87;69.98
61674;BME280;47573;43.832;5.974;2023-02-01T06:44:56;95675.78;;;17.83;69.97
61674;BME280;47573;43.832;5.974;2023-02-01T06:51:37;95672.03;;;17.77;70.11
61674;BME280;47573;43.832;5.974;2023-02-01T06:58:18;95673.25;;;17.75;70.14
61674;BME280;47573;43.832;5.974;2023-02-01T07:04:59;95676.56;;;17.77;69.88
61674;BME280;47573;43.832;5.974;2023-02-01T07:11:40;95681.13;;;17.70;69.86
61674;BME280;47573;43.832;5.974;2023-02-01T07:18:22;95674.06;;;17.68;69.90
61674;BME280;47573;43.832;5.974;2023-02-01T07:25:03;95675.69;;;17.63;69.91
61674;BME280;47573;43.832;5.974;2023-02-01T07:31:43;95685.66;;;17.62;69.92
61674;BME280;47573;43.832;5.974;2023-02-01T07:38:25;95679.84;;;17.59;69.77
61674;BME280;47573;43.832;5.974;2023-02-01T07:45:07;95686.09;;;17.59;69.77
61674;BME280;47573;43.832;5.974;2023-02-01T07:51:48;95691.03;;;17.56;69.74
61674;BME280;47573;43.832;5.974;2023-02-01T07:58:29;95688.16;;;17.57;69.58
61674;BME280;47573;43.832;5.974;2023-02-01T08:05:10;95705.63;;;17.61;69.46
61674;BME280;47573;43.832;5.974;2023-02-01T08:11:50;95712.03;;;17.60;69.18
61674;BME280;47573;43.832;5.974;2023-02-01T08:18:33;95708.94;;;17.63;69.10
61674;BME280;47573;43.832;5.974;2023-02-01T08:25:13;95718.94;;;17.70;68.78
61674;BME280;47573;43.832;5.974;2023-02-01T08:31:54;95719.31;;;17.66;68.54
61674;BME280;47573;43.832;5.974;2023-02-01T08:38:36;95714.81;;;17.74;68.36
61674;BME280;47573;43.832;5.974;2023-02-01T08:45:18;95723.97;;;17.79;68.09
61674;BME280;47573;43.832;5.974;2023-02-01T08:51:58;95733.53;;;17.82;67.94
61674;BME280;47573;43.832;5.974;2023-02-01T08:58:40;95723.00;;;18.00;67.82
61674;BME280;47573;43.832;5.974;2023-02-01T09:05:21;95714.97;;;17.65;56.18
61674;BME280;47573;43.832;5.974;2023-02-01T09:12:03;95715.91;;;17.51;53.38
61674;BME280;47573;43.832;5.974;2023-02-01T09:18:45;95711.28;;;17.45;51.63
61674;BME280;47573;43.832;5.974;2023-02-01T09:25:25;95699.72;;;17.51;52.25
61674;BME280;47573;43.832;5.974;2023-02-01T09:32:06;95708.38;;;17.81;54.89
61674;BME280;47573;43.832;5.974;2023-02-01T09:38:48;95726.13;;;17.97;56.85
61674;BME280;47573;43.832;5.974;2023-02-01T09:45:33;95745.44;;;17.94;50.37
61674;BME280;47573;43.832;5.974;2023-02-01T09:52:19;95747.78;;;18.10;53.87
61674;BME280;47573;43.832;5.974;2023-02-01T09:59:10;95738.63;;;18.04;50.21
61674;BME280;47573;43.832;5.974;2023-02-01T10:06:16;95750.16;;;18.39;57.90
61674;BME280;47573;43.832;5.974;2023-02-01T10:13:31;95754.19;;;18.56;58.31
61674;BME280;47573;43.832;5.974;2023-02-01T10:20:24;95749.44;;;18.71;58.33
61674;BME280;47573;43.832;5.974;2023-02-01T10:27:17;95733.44;;;18.89;58.75
61674;BME280;47573;43.832;5.974;2023-02-01T10:33:59;95741.34;;;18.97;58.75
61674;BME280;47573;43.832;5.974;2023-02-01T10:40:42;95722.19;;;19.05;58.60
61674;BME280;47573;43.832;5.974;2023-02-01T10:47:23;95732.19;;;19.11;58.88
61674;BME280;47573;43.832;5.974;2023-02-01T10:54:09;95712.59;;;19.16;59.19
61674;BME280;47573;43.832;5.974;2023-02-01T11:00:55;95718.66;;;19.24;59.19
61674;BME280;47573;43.832;5.974;2023-02-01T11:07:37;95700.94;;;19.28;58.97
61674;BME280;47573;43.832;5.974;2023-02-01T11:14:20;95699.28;;;19.27;59.26
61674;BME280;47573;43.832;5.974;2023-02-01T11:21:08;95700.53;;;19.18;59.79
61674;BME280;47573;43.832;5.974;2023-02-01T11:27:50;95706.16;;;19.17;60.01
61674;BME280;47573;43.832;5.974;2023-02-01T11:34:36;95709.31;;;19.34;60.22
61674;BME280;47573;43.832;5.974;2023-02-01T11:41:23;95708.06;;;19.36;61.34
61674;BME280;47573;43.832;5.974;2023-02-01T11:48:08;95705.53;;;19.21;62.93
61674;BME280;47573;43.832;5.974;2023-02-01T11:55:02;95700.94;;;19.28;62.76
61674;BME280;47573;43.832;5.974;2023-02-01T12:01:59;95690.94;;;19.22;63.50
61674;BME280;47573;43.832;5.974;2023-02-01T12:09:11;95671.78;;;19.24;63.38
61674;BME280;47573;43.832;5.974;2023-02-01T12:16:02;95660.75;;;19.25;63.42
61674;BME280;47573;43.832;5.974;2023-02-01T12:22:55;95657.63;;;19.28;63.39
61674;BME280;47573;43.832;5.974;2023-02-01T12:29:52;95644.69;;;19.31;63.35
61674;BME280;47573;43.832;5.974;2023-02-01T12:36:41;95642.22;;;19.36;63.23
61674;BME280;47573;43.832;5.974;2023-02-01T12:43:33;95624.13;;;19.36;63.47
61674;BME280;47573;43.832;5.974;2023-02-01T12:50:19;95603.88;;;19.39;63.49
61674;BME280;47573;43.832;5.974;2023-02-01T12:57:03;95601.78;;;19.41;63.61
61674;BME280;47573;43.832;5.974;2023-02-01T13:03:56;95588.44;;;19.46;63.38
61674;BME280;47573;43.832;5.974;2023-02-01T13:10:42;95578.47;;;19.46;63.60
61674;BME280;47573;43.832;5.974;2023-02-01T13:17:26;95585.09;;;19.50;63.62
61674;BME280;47573;43.832;5.974;2023-02-01T13:24:21;95577.81;;;19.51;63.63
61674;BME280;47573;43.832;5.974;2023-02-01T13:38:18;95554.44;;;19.56;63.48
61674;BME280;47573;43.832;5.974;2023-02-01T13:45:16;95553.63;;;19.56;63.75
61674;BME280;47573;43.832;5.974;2023-02-01T13:51:58;95560.09;;;19.55;63.70
61674;BME280;47573;43.832;5.974;2023-02-01T13:58:40;95556.09;;;19.57;63.86
61674;BME280;47573;43.832;5.974;2023-02-01T14:05:57;95553.84;;;19.54;64.09
61674;BME280;47573;43.832;5.974;2023-02-01T14:12:46;95560.09;;;19.55;63.95
61674;BME280;47573;43.832;5.974;2023-02-01T14:19:29;95559.56;;;19.77;63.59
61674;BME280;47573;43.832;5.974;2023-02-01T14:26:17;95546.34;;;20.19;63.79
61674;BME280;47573;43.832;5.974;2023-02-01T14:32:58;95552.63;;;20.19;64.36
61674;BME280;47573;43.832;5.974;2023-02-01T14:39:53;95559.63;;;20.33;64.95
61674;BME280;47573;43.832;5.974;2023-02-01T14:47:05;95565.47;;;20.30;65.06
61674;BME280;47573;43.832;5.974;2023-02-01T14:53:46;95559.66;;;20.51;65.74
61674;BME280;47573;43.832;5.974;2023-02-01T15:00:29;95562.72;;;20.61;66.34
61674;BME280;47573;43.832;5.974;2023-02-01T15:07:12;95570.69;;;20.56;66.77
61674;BME280;47573;43.832;5.974;2023-02-01T15:13:54;95569.63;;;20.57;67.55
61674;BME280;47573;43.832;5.974;2023-02-01T15:20:34;95560.28;;;20.53;66.47
61674;BME280;47573;43.832;5.974;2023-02-01T15:27:16;95564.66;;;20.54;67.60
61674;BME280;47573;43.832;5.974;2023-02-01T15:33:57;95544.28;;;20.70;66.33
61674;BME280;47573;43.832;5.974;2023-02-01T15:40:37;95562.66;;;20.68;68.12
61674;BME280;47573;43.832;5.974;2023-02-01T15:47:34;95576.16;;;20.74;68.22
61674;BME280;47573;43.832;5.974;2023-02-01T15:54:17;95562.53;;;20.81;68.36
61674;BME280;47573;43.832;5.974;2023-02-01T16:01:00;95559.97;;;20.86;68.47
61674;BME280;47573;43.832;5.974;2023-02-01T16:07:55;95570.94;;;20.98;68.75
61674;BME280;47573;43.832;5.974;2023-02-01T16:14:36;95573.66;;;20.98;68.42
61674;BME280;47573;43.832;5.974;2023-02-01T16:21:17;95573.66;;;20.98;68.92
61674;BME280;47573;43.832;5.974;2023-02-01T16:27:59;95568.19;;;21.04;68.84
61674;BME280;47573;43.832;5.974;2023-02-01T16:34:39;95573.09;;;21.14;69.01
61674;BME280;47573;43.832;5.974;2023-02-01T16:41:23;95575.81;;;21.14;69.26
61674;BME280;47573;43.832;5.974;2023-02-01T16:48:05;95593.53;;;21.16;69.36
61674;BME280;47573;43.832;5.974;2023-02-01T16:54:47;95611.09;;;21.14;70.00
61674;BME280;47573;43.832;5.974;2023-02-01T17:01:28;95610.66;;;21.17;70.13
61674;BME280;47573;43.832;5.974;2023-02-01T17:08:12;95621.91;;;21.20;70.34
61674;BME280;47573;43.832;5.974;2023-02-01T17:14:53;95633.63;;;21.39;70.24
61674;BME280;47573;43.832;5.974;2023-02-01T17:21:38;95630.13;;;21.32;70.36
61674;BME280;47573;43.832;5.974;2023-02-01T17:28:21;95641.44;;;21.29;71.21
61674;BME280;47573;43.832;5.974;2023-02-01T17:35:02;95649.75;;;21.34;71.42
61674;BME280;47573;43.832;5.974;2023-02-01T17:41:42;95662.75;;;21.50;71.12
61674;BME280;47573;43.832;5.974;2023-02-01T17:48:24;95665.13;;;21.40;71.76
61674;BME280;47573;43.832;5.974;2023-02-01T17:55:15;95676.34;;;21.50;71.52
61674;BME280;47573;43.832;5.974;2023-02-01T18:01:56;95684.31;;;21.45;72.08
61674;BME280;47573;43.832;5.974;2023-02-01T18:08:38;95683.78;;;21.54;71.92
61674;BME280;47573;43.832;5.974;2023-02-01T18:15:20;95702.00;;;21.54;72.14
61674;BME280;47573;43.832;5.974;2023-02-01T18:22:01;95707.88;;;21.51;72.74
61674;BME280;47573;43.832;5.974;2023-02-01T18:28:43;95712.72;;;21.49;73.05
61674;BME280;47573;43.832;5.974;2023-02-01T18:35:25;95715.13;;;21.57;73.07
61674;BME280;47573;43.832;5.974;2023-02-01T18:42:07;95708.78;;;21.63;73.35
61674;BME280;47573;43.832;5.974;2023-02-01T18:48:49;95711.50;;;21.63;73.19
61674;BME280;47573;43.832;5.974;2023-02-01T18:55:30;95713.31;;;21.69;73.12
61674;BME280;47573;43.832;5.974;2023-02-01T19:02:11;95727.06;;;21.74;73.52
61674;BME280;47573;43.832;5.974;2023-02-01T19:08:53;95733.78;;;21.72;74.20
61674;BME280;47573;43.832;5.974;2023-02-01T19:15:34;95731.47;;;21.75;74.21
61674;BME280;47573;43.832;5.974;2023-02-01T19:22:14;95755.53;;;21.72;74.63
61674;BME280;47573;43.832;5.974;2023-02-01T19:28:58;95754.78;;;21.65;74.42
61674;BME280;47573;43.832;5.974;2023-02-01T19:35:38;95759.63;;;21.63;74.87
61674;BME280;47573;43.832;5.974;2023-02-01T19:42:18;95764.81;;;21.64;75.04
61674;BME280;47573;43.832;5.974;2023-02-01T19:49:00;95765.03;;;21.87;74.33
61674;BME280;47573;43.832;5.974;2023-02-01T19:55:43;95771.50;;;21.86;75.21
61674;BME280;47573;43.832;5.974;2023-02-01T20:02:24;95788.44;;;21.88;76.87
61674;BME280;47573;43.832;5.974;2023-02-01T20:09:06;95782.69;;;21.96;79.07
61674;BME280;47573;43.832;5.974;2023-02-01T20:15:46;95783.22;;;22.05;80.82
61674;BME280;47573;43.832;5.974;2023-02-01T20:22:27;95777.59;;;22.06;83.40
61674;BME280;47573;43.832;5.974;2023-02-01T20:29:09;95771.06;;;22.07;83.70
61674;BME280;47573;43.832;5.974;2023-02-01T20:35:50;95791.25;;;22.00;83.58
61674;BME280;47573;43.832;5.974;2023-02-01T20:42:30;95784.13;;;21.99;83.40
61674;BME280;47573;43.832;5.974;2023-02-01T20:49:12;95771.97;;;22.01;83.12
61674;BME280;47573;43.832;5.974;2023-02-01T20:55:54;95776.97;;;22.04;82.02
61674;BME280;47573;43.832;5.974;2023-02-01T21:02:35;95781.19;;;22.00;82.10
61674;BME280;47573;43.832;5.974;2023-02-01T21:09:16;95777.34;;;21.90;81.32
61674;BME280;47573;43.832;5.974;2023-02-01T21:15:57;95786.94;;;21.43;82.74
61674;BME280;47573;43.832;5.974;2023-02-01T21:22:38;95797.31;;;21.28;82.38
61674;BME280;47573;43.832;5.974;2023-02-01T21:29:20;95804.50;;;21.16;82.48
61674;BME280;47573;43.832;5.974;2023-02-01T21:36:01;95790.31;;;21.14;82.19
61674;BME280;47573;43.832;5.974;2023-02-01T21:42:41;95795.78;;;21.07;81.94
61674;BME280;47573;43.832;5.974;2023-02-01T21:49:23;95798.34;;;21.02;81.37
61674;BME280;47573;43.832;5.974;2023-02-01T21:56:04;95795.19;;;20.99;81.58
61674;BME280;47573;43.832;5.974;2023-02-01T22:02:45;95799.66;;;20.87;81.33
61674;BME280;47573;43.832;5.974;2023-02-01T22:09:28;95797.59;;;20.82;81.09
61674;BME280;47573;43.832;5.974;2023-02-01T22:16:08;95788.06;;;20.73;81.04
61674;BME280;47573;43.832;5.974;2023-02-01T22:22:49;95783.06;;;20.70;80.62
61674;BME280;47573;43.832;5.974;2023-02-01T22:29:31;95784.75;;;20.64;80.43
61674;BME280;47573;43.832;5.974;2023-02-01T22:36:11;95790.19;;;20.64;80.01
61674;BME280;47573;43.832;5.974;2023-02-01T22:42:52;95794.03;;;20.50;80.31
61674;BME280;47573;43.832;5.974;2023-02-01T22:49:33;95802.31;;;20.55;79.13
61674;BME280;47573;43.832;5.974;2023-02-01T22:56:14;95777.75;;;20.50;79.06
61674;BME280;47573;43.832;5.974;2023-02-01T23:02:54;95785.72;;;20.39;78.81
61674;BME280;47573;43.832;5.974;2023-02-01T23:09:36;95782.00;;;20.33;78.53
61674;BME280;47573;43.832;5.974;2023-02-01T23:16:17;95782.78;;;20.40;78.47
61674;BME280;47573;43.832;5.974;2023-02-01T23:22:57;95764.22;;;20.44;77.65
61674;BME280;47573;43.832;5.974;2023-02-01T23:29:39;95748.59;;;20.39;77.42
61674;BME280;47573;43.832;5.974;2023-02-01T23:36:21;95734.22;;;20.32;77.25
61674;BME280;47573;43.832;5.974;2023-02-01T23:43:02;95743.66;;;20.23;77.15
61674;BME280;47573;43.832;5.974;2023-02-01T23:49:43;95742.81;;;20.16;76.82
61674;BME280;47573;43.832;5.974;2023-02-01T23:56:25;95740.13;;;20.10;76.81
